createdAt,value
2022-11-05T00:00:37.611Z,79.93
2022-11-05T00:03:23.573Z,80.05
2022-11-05T00:06:12.282Z,80.02
2022-11-05T00:08:59.465Z,80.20
2022-11-05T00:11:46.648Z,80.07
2022-11-05T00:14:32.716Z,80.14
2022-11-05T00:16:59.696Z,80.20
2022-11-05T00:19:26.446Z,80.32
2022-11-05T00:22:11.651Z,80.17
2022-11-05T00:24:57.010Z,80.20
2022-11-05T00:27:23.850Z,80.14
2022-11-05T00:29:50.598Z,80.21
2022-11-05T00:32:17.532Z,80.26
2022-11-05T00:34:44.292Z,80.27
2022-11-05T00:37:11.111Z,80.04
2022-11-05T00:39:38.053Z,80.14
2022-11-05T00:42:23.456Z,80.14
2022-11-05T00:45:02.336Z,80.01
2022-11-05T00:47:49.203Z,79.90
2022-11-05T00:50:16.900Z,79.65
2022-11-05T00:52:55.810Z,79.89
2022-11-05T00:55:24.244Z,79.77
2022-11-05T00:57:51.136Z,79.82
2022-11-05T01:00:18.577Z,79.50
2022-11-05T01:02:45.863Z,79.72
2022-11-05T01:05:13.614Z,79.69
2022-11-05T01:07:40.800Z,79.60
2022-11-05T01:10:08.060Z,79.59
2022-11-05T01:12:34.841Z,79.74
2022-11-05T01:15:02.033Z,79.59
2022-11-05T01:17:28.848Z,79.65
2022-11-05T01:19:55.837Z,79.59
2022-11-05T01:22:22.677Z,79.54
2022-11-05T01:24:49.596Z,79.56
2022-11-05T01:27:16.373Z,79.82
2022-11-05T01:29:43.220Z,79.97
2022-11-05T01:32:09.988Z,80.11
2022-11-05T01:34:36.884Z,79.81
2022-11-05T01:37:03.736Z,80.06
2022-11-05T01:39:30.624Z,80.07
2022-11-05T01:41:58.846Z,79.98
2022-11-05T01:45:03.288Z,79.82
2022-11-05T01:47:34.398Z,79.93
2022-11-05T01:50:06.874Z,80.00
2022-11-05T01:52:35.411Z,79.89
2022-11-05T01:55:04.048Z,79.74
2022-11-05T01:57:32.622Z,79.82
2022-11-05T02:00:01.413Z,79.65
2022-11-05T02:02:30.049Z,79.88
2022-11-05T02:05:02.294Z,79.65
2022-11-05T02:07:30.788Z,79.66
2022-11-05T02:10:07.059Z,79.45
2022-11-05T02:12:36.476Z,79.53
2022-11-05T02:15:03.676Z,79.40
2022-11-05T02:17:53.589Z,79.36
2022-11-05T02:20:36.352Z,79.67
2022-11-05T02:23:12.182Z,79.37
2022-11-05T02:25:57.059Z,79.52
2022-11-05T02:29:02.327Z,79.08
2022-11-05T02:31:33.327Z,79.11
2022-11-05T02:34:11.646Z,79.03
2022-11-05T02:37:05.127Z,79.31
2022-11-05T02:39:51.372Z,79.23
2022-11-05T02:42:45.917Z,79.25
2022-11-05T02:45:31.087Z,79.24
2022-11-05T02:48:22.161Z,79.10
2022-11-05T02:51:12.048Z,79.15
2022-11-05T02:53:42.773Z,79.12
2022-11-05T02:56:20.233Z,79.06
2022-11-05T02:58:47.069Z,79.21
2022-11-05T03:01:14.312Z,79.21
2022-11-05T03:03:43.079Z,79.11
2022-11-05T03:06:40.651Z,79.09
2022-11-05T03:09:25.920Z,79.11
2022-11-05T03:12:15.897Z,78.98
2022-11-05T03:14:53.843Z,78.88
2022-11-05T03:17:33.350Z,79.10
2022-11-05T03:20:05.717Z,79.08
2022-11-05T03:22:41.505Z,79.00
2022-11-05T03:25:15.893Z,79.19
2022-11-05T03:27:47.431Z,79.24
2022-11-05T03:30:18.077Z,79.19
2022-11-05T03:32:52.713Z,79.17
2022-11-05T03:35:34.444Z,78.96
2022-11-05T03:38:07.035Z,78.85
2022-11-05T03:40:37.431Z,79.01
2022-11-05T03:43:07.676Z,78.75
2022-11-05T03:45:41.792Z,79.06
2022-11-05T03:48:12.707Z,78.95
2022-11-05T03:50:56.375Z,78.86
2022-11-05T03:53:27.554Z,78.99
2022-11-05T03:56:10.541Z,78.85
2022-11-05T03:58:42.667Z,78.78
2022-11-05T04:01:10.009Z,78.95
2022-11-05T04:03:36.793Z,78.98
2022-11-05T04:06:24.158Z,78.88
2022-11-05T04:09:09.981Z,78.96
2022-11-05T04:11:55.284Z,78.85
2022-11-05T04:14:22.113Z,78.88
2022-11-05T04:17:06.977Z,78.95
2022-11-05T04:19:53.699Z,79.02
2022-11-05T04:22:40.001Z,78.93
2022-11-05T04:25:07.429Z,78.95
2022-11-05T04:27:34.705Z,78.82
2022-11-05T04:30:19.654Z,78.89
2022-11-05T04:33:00.251Z,78.93
2022-11-05T04:35:29.900Z,78.58
2022-11-05T04:37:56.906Z,78.71
2022-11-05T04:40:24.050Z,78.73
2022-11-05T04:42:50.903Z,78.67
2022-11-05T04:45:17.678Z,78.95
2022-11-05T04:47:44.613Z,79.01
2022-11-05T04:50:12.259Z,79.09
2022-11-05T04:52:40.058Z,78.72
2022-11-05T04:55:07.752Z,79.01
2022-11-05T04:57:34.927Z,78.86
2022-11-05T05:00:02.122Z,78.91
2022-11-05T05:02:28.953Z,78.92
2022-11-05T05:04:55.705Z,79.07
2022-11-05T05:07:22.638Z,78.98
2022-11-05T05:09:49.474Z,78.93
2022-11-05T05:12:16.336Z,78.95
2022-11-05T05:14:43.095Z,78.83
2022-11-05T05:17:10.111Z,78.86
2022-11-05T05:19:56.821Z,78.83
2022-11-05T05:22:23.801Z,78.91
2022-11-05T05:24:52.954Z,78.78
2022-11-05T05:27:20.639Z,78.82
2022-11-05T05:29:47.377Z,78.87
2022-11-05T05:32:14.383Z,78.84
2022-11-05T05:34:41.160Z,78.81
2022-11-05T05:37:07.962Z,78.59
2022-11-05T05:39:34.712Z,78.58
2022-11-05T05:42:01.582Z,78.69
2022-11-05T05:44:28.350Z,78.64
2022-11-05T05:46:55.582Z,78.80
2022-11-05T05:49:22.410Z,78.66
2022-11-05T05:51:49.897Z,78.72
2022-11-05T05:54:16.893Z,78.69
2022-11-05T05:56:44.474Z,78.38
2022-11-05T05:59:11.572Z,78.48
2022-11-05T06:01:38.582Z,78.50
2022-11-05T06:04:05.645Z,78.51
2022-11-05T06:06:32.689Z,78.49
2022-11-05T06:08:59.537Z,78.34
2022-11-05T06:11:26.585Z,78.35
2022-11-05T06:13:53.413Z,78.63
2022-11-05T06:16:20.328Z,78.45
2022-11-05T06:18:47.518Z,78.34
2022-11-05T06:21:16.639Z,78.40
2022-11-05T06:23:44.890Z,78.54
2022-11-05T06:26:14.495Z,78.37
2022-11-05T06:28:42.223Z,78.23
2022-11-05T06:31:13.808Z,78.15
2022-11-05T06:33:41.439Z,78.20
2022-11-05T06:36:12.580Z,78.11
2022-11-05T06:38:39.483Z,78.21
2022-11-05T06:41:10.325Z,78.21
2022-11-05T06:43:38.796Z,78.27
2022-11-05T06:46:06.258Z,78.27
2022-11-05T06:48:33.354Z,78.22
2022-11-05T06:51:00.152Z,78.21
2022-11-05T06:53:27.041Z,78.29
2022-11-05T06:55:53.778Z,78.26
2022-11-05T06:58:20.956Z,78.21
2022-11-05T07:00:48.047Z,78.24
2022-11-05T07:03:15.309Z,78.28
2022-11-05T07:05:47.936Z,78.01
2022-11-05T07:08:15.905Z,78.12
2022-11-05T07:10:42.801Z,78.17
2022-11-05T07:13:09.832Z,77.97
2022-11-05T07:15:37.447Z,77.98
2022-11-05T07:18:07.399Z,78.01
2022-11-05T07:20:34.994Z,77.88
2022-11-05T07:23:08.622Z,77.76
2022-11-05T07:25:36.287Z,77.90
2022-11-05T07:28:03.756Z,77.77
2022-11-05T07:30:31.950Z,77.85
2022-11-05T07:32:58.819Z,77.69
2022-11-05T07:35:26.298Z,77.90
2022-11-05T07:37:54.668Z,77.82
2022-11-05T07:40:23.499Z,77.88
2022-11-05T07:42:52.992Z,77.86
2022-11-05T07:45:20.291Z,77.92
2022-11-05T07:47:49.049Z,77.66
2022-11-05T07:50:17.032Z,77.77
2022-11-05T07:52:44.306Z,77.73
2022-11-05T07:55:13.286Z,77.86
2022-11-05T07:57:44.272Z,77.95
2022-11-05T08:00:29.843Z,77.82
2022-11-05T08:03:07.243Z,77.68
2022-11-05T08:05:37.052Z,77.68
2022-11-05T08:08:05.046Z,77.58
2022-11-05T08:10:33.957Z,77.52
2022-11-05T08:13:01.140Z,77.44
2022-11-05T08:15:28.589Z,77.44
2022-11-05T08:18:14.670Z,77.57
2022-11-05T08:20:43.152Z,77.66
2022-11-05T08:23:10.991Z,77.68
2022-11-05T08:25:38.163Z,78.02
2022-11-05T08:28:07.792Z,78.03
2022-11-05T08:30:35.444Z,77.89
2022-11-05T08:33:05.700Z,77.90
2022-11-05T08:35:34.740Z,77.98
2022-11-05T08:38:03.162Z,77.75
2022-11-05T08:40:32.939Z,77.82
2022-11-05T08:43:02.669Z,77.85
2022-11-05T08:45:30.189Z,77.66
2022-11-05T08:48:01.446Z,77.55
2022-11-05T08:50:28.991Z,77.70
2022-11-05T08:52:55.808Z,77.78
2022-11-05T08:55:22.976Z,77.80
2022-11-05T08:58:15.307Z,77.51
2022-11-05T09:00:43.365Z,77.73
2022-11-05T09:03:10.989Z,77.81
2022-11-05T09:05:39.724Z,77.85
2022-11-05T09:08:08.087Z,77.91
2022-11-05T09:10:35.363Z,77.88
2022-11-05T09:13:02.647Z,77.86
2022-11-05T09:15:30.491Z,77.92
2022-11-05T09:17:57.540Z,77.98
2022-11-05T09:20:24.522Z,77.96
2022-11-05T09:22:51.787Z,77.81
2022-11-05T09:25:18.687Z,77.68
2022-11-05T09:27:45.535Z,77.82
2022-11-05T09:30:13.896Z,77.92
2022-11-05T09:32:40.889Z,78.05
2022-11-05T09:35:08.949Z,77.77
2022-11-05T09:37:39.093Z,77.89
2022-11-05T09:40:06.735Z,77.92
2022-11-05T09:42:40.076Z,78.14
2022-11-05T09:45:19.053Z,77.92
2022-11-05T09:47:53.943Z,78.09
2022-11-05T09:50:30.624Z,78.16
2022-11-05T09:52:57.840Z,78.35
2022-11-05T09:55:30.547Z,78.37
2022-11-05T09:58:00.503Z,78.40
2022-11-05T10:00:28.999Z,78.23
2022-11-05T10:03:04.108Z,78.47
2022-11-05T10:05:33.357Z,78.55
2022-11-05T10:08:22.105Z,78.60
2022-11-05T10:10:54.931Z,78.59
2022-11-05T10:13:40.197Z,78.72
2022-11-05T10:16:16.067Z,78.80
2022-11-05T10:18:48.436Z,78.83
2022-11-05T10:21:27.767Z,78.96
2022-11-05T10:24:17.731Z,79.00
2022-11-05T10:26:50.830Z,79.16
2022-11-05T10:29:29.295Z,79.42
2022-11-05T10:32:01.609Z,79.32
2022-11-05T10:34:36.149Z,79.59
2022-11-05T10:37:04.176Z,79.51
2022-11-05T10:39:32.610Z,79.80
2022-11-05T10:42:11.483Z,79.83
2022-11-05T10:44:58.415Z,79.95
2022-11-05T10:47:38.656Z,80.09
2022-11-05T10:50:16.953Z,80.23
2022-11-05T10:52:52.696Z,80.47
2022-11-05T10:55:25.913Z,80.32
2022-11-05T10:57:52.946Z,80.44
2022-11-05T11:00:24.813Z,80.30
2022-11-05T11:02:58.148Z,80.32
2022-11-05T11:05:25.041Z,80.65
2022-11-05T11:08:01.297Z,80.67
2022-11-05T11:10:30.617Z,80.57
2022-11-05T11:12:57.852Z,82.07
2022-11-05T11:15:28.348Z,81.61
2022-11-05T11:17:56.639Z,81.48
2022-11-05T11:20:29.657Z,81.49
2022-11-05T11:23:14.398Z,81.45
2022-11-05T11:26:10.159Z,81.81
2022-11-05T11:28:46.112Z,81.37
2022-11-05T11:31:16.968Z,81.72
2022-11-05T11:33:47.950Z,81.78
2022-11-05T11:36:19.003Z,82.02
2022-11-05T11:38:46.208Z,83.16
2022-11-05T11:41:33.713Z,82.17
2022-11-05T11:44:06.787Z,82.13
2022-11-05T11:46:35.496Z,82.08
2022-11-05T11:49:03.363Z,82.23
2022-11-05T11:51:49.808Z,82.05
2022-11-05T11:54:28.603Z,81.96
2022-11-05T11:56:56.191Z,82.26
2022-11-05T11:59:53.869Z,82.09
2022-11-05T12:02:44.799Z,82.01
2022-11-05T12:05:34.823Z,82.93
2022-11-05T12:08:22.673Z,82.71
2022-11-05T12:11:21.694Z,82.56
2022-11-05T12:14:08.504Z,83.18
2022-11-05T12:16:56.506Z,83.31
2022-11-05T12:19:47.733Z,83.07
2022-11-05T12:22:30.467Z,82.75
2022-11-05T12:25:34.069Z,83.26
2022-11-05T12:28:09.638Z,83.58
2022-11-05T12:31:05.338Z,83.38
2022-11-05T12:34:02.956Z,83.11
2022-11-05T12:36:40.416Z,83.28
2022-11-05T12:39:27.411Z,83.43
2022-11-05T12:42:14.013Z,83.42
2022-11-05T12:44:59.690Z,83.16
2022-11-05T12:47:46.800Z,83.35
2022-11-05T12:50:39.879Z,83.53
2022-11-05T12:53:40.063Z,83.63
2022-11-05T12:56:16.830Z,84.01
2022-11-05T12:58:48.701Z,83.74
2022-11-05T13:01:20.897Z,84.06
2022-11-05T13:04:01.585Z,84.23
2022-11-05T13:06:40.262Z,84.19
2022-11-05T13:09:28.235Z,84.89
2022-11-05T13:11:59.608Z,84.53
2022-11-05T13:14:43.489Z,84.48
2022-11-05T13:17:15.064Z,84.91
2022-11-05T13:19:46.345Z,85.07
2022-11-05T13:22:35.128Z,85.48
2022-11-05T13:25:25.598Z,85.85
2022-11-05T13:28:12.519Z,86.14
2022-11-05T13:30:51.645Z,85.69
2022-11-05T13:33:26.663Z,86.86
2022-11-05T13:36:23.746Z,86.47
2022-11-05T13:38:59.878Z,86.44
2022-11-05T13:42:04.344Z,87.15
2022-11-05T13:45:27.928Z,86.99
2022-11-05T13:48:03.989Z,87.19
2022-11-05T13:50:58.135Z,87.19
2022-11-05T13:53:34.071Z,86.51
2022-11-05T13:56:22.383Z,86.51
2022-11-05T13:58:57.267Z,86.58
2022-11-05T14:01:42.604Z,87.22
2022-11-05T14:04:26.307Z,87.12
2022-11-05T14:06:54.560Z,86.97
2022-11-05T14:09:27.491Z,87.28
2022-11-05T14:11:57.001Z,87.44
2022-11-05T14:14:45.910Z,88.53
2022-11-05T14:17:43.173Z,87.97
2022-11-05T14:20:32.291Z,87.69
2022-11-05T14:23:31.420Z,87.80
2022-11-05T14:26:14.483Z,87.73
2022-11-05T14:28:45.343Z,88.34
2022-11-05T14:31:18.426Z,88.08
2022-11-05T14:34:10.387Z,87.76
2022-11-05T14:36:42.288Z,88.34
2022-11-05T14:39:21.639Z,88.43
2022-11-05T14:41:57.245Z,88.53
2022-11-05T14:44:25.934Z,88.16
2022-11-05T14:46:57.334Z,87.87
2022-11-05T14:49:33.363Z,88.71
2022-11-05T14:52:10.135Z,88.84
2022-11-05T14:54:45.342Z,89.15
2022-11-05T14:57:15.116Z,89.40
2022-11-05T14:59:56.943Z,89.03
2022-11-05T15:02:56.078Z,88.29
2022-11-05T15:05:33.356Z,88.71
2022-11-05T15:08:31.477Z,88.91
2022-11-05T15:11:20.292Z,88.43
2022-11-05T15:13:53.637Z,88.62
2022-11-05T15:16:25.023Z,88.44
2022-11-05T15:18:54.323Z,89.09
2022-11-05T15:21:22.028Z,89.08
2022-11-05T15:23:51.971Z,88.91
2022-11-05T15:26:36.592Z,88.73
2022-11-05T15:29:13.927Z,89.08
2022-11-05T15:31:43.277Z,90.06
2022-11-05T15:34:16.363Z,89.69
2022-11-05T15:36:57.652Z,89.77
2022-11-05T15:39:45.548Z,89.28
2022-11-05T15:42:19.628Z,89.10
2022-11-05T15:44:52.789Z,89.41
2022-11-05T15:47:31.710Z,90.11
2022-11-05T15:50:02.034Z,90.15
2022-11-05T15:52:42.081Z,89.18
2022-11-05T15:55:29.152Z,89.78
2022-11-05T15:57:56.049Z,89.25
2022-11-05T16:00:28.926Z,89.29
2022-11-05T16:03:04.715Z,88.83
2022-11-05T16:05:35.114Z,88.50
2022-11-05T16:08:04.436Z,88.49
2022-11-05T16:10:37.979Z,88.78
2022-11-05T16:13:41.877Z,89.04
2022-11-05T16:16:14.320Z,88.69
2022-11-05T16:18:42.310Z,88.70
2022-11-05T16:21:18.596Z,88.76
2022-11-05T16:23:48.308Z,88.78
2022-11-05T16:29:39.380Z,89.77
2022-11-05T16:32:18.456Z,89.60
2022-11-05T16:34:51.292Z,89.43
2022-11-05T16:37:21.279Z,89.25
2022-11-05T16:39:48.491Z,89.43
2022-11-05T16:42:27.160Z,89.50
2022-11-05T16:44:55.268Z,89.50
2022-11-05T16:47:23.031Z,89.33
2022-11-05T16:49:50.644Z,89.54
2022-11-05T16:52:17.736Z,89.42
2022-11-05T16:54:44.734Z,89.22
2022-11-05T16:57:32.081Z,89.18
2022-11-05T17:00:00.510Z,89.54
2022-11-05T17:02:28.307Z,89.44
2022-11-05T17:04:55.264Z,89.43
2022-11-05T17:07:22.156Z,89.34
2022-11-05T17:09:48.971Z,89.44
2022-11-05T17:12:15.813Z,89.35
2022-11-05T17:14:42.682Z,89.41
2022-11-05T17:17:10.407Z,89.35
2022-11-05T17:19:42.227Z,89.21
2022-11-05T17:22:09.287Z,89.09
2022-11-05T17:24:36.156Z,89.07
2022-11-05T17:27:03.256Z,88.86
2022-11-05T17:29:30.091Z,88.73
2022-11-05T17:31:56.941Z,88.77
2022-11-05T17:34:23.681Z,88.87
2022-11-05T17:36:50.576Z,88.96
2022-11-05T17:39:17.362Z,88.71
2022-11-05T17:41:44.499Z,88.69
2022-11-05T17:44:12.033Z,88.60
2022-11-05T17:46:38.957Z,88.67
2022-11-05T17:49:05.888Z,88.51
2022-11-05T17:51:34.288Z,88.16
2022-11-05T17:54:01.071Z,88.12
2022-11-05T17:56:34.471Z,88.26
2022-11-05T17:59:02.830Z,88.37
2022-11-05T18:01:32.615Z,88.64
2022-11-05T18:04:05.467Z,88.64
2022-11-05T18:06:39.641Z,88.72
2022-11-05T18:09:08.097Z,88.57
2022-11-05T18:11:35.712Z,88.64
2022-11-05T18:14:03.788Z,88.55
2022-11-05T18:16:30.617Z,88.38
2022-11-05T18:18:57.467Z,88.33
2022-11-05T18:21:24.274Z,88.39
2022-11-05T18:23:51.227Z,88.25
2022-11-05T18:26:18.056Z,88.32
2022-11-05T18:28:44.985Z,88.21
2022-11-05T18:31:18.522Z,88.35
2022-11-05T18:33:45.627Z,88.28
2022-11-05T18:36:18.742Z,88.28
2022-11-05T18:38:45.849Z,88.24
2022-11-05T18:41:12.648Z,88.29
2022-11-05T18:43:39.534Z,88.15
2022-11-05T18:46:07.682Z,88.13
2022-11-05T18:48:35.599Z,88.18
2022-11-05T18:51:16.599Z,88.16
2022-11-05T18:53:43.779Z,88.09
2022-11-05T18:56:13.081Z,88.00
2022-11-05T18:58:40.010Z,88.00
2022-11-05T19:01:25.385Z,87.82
2022-11-05T19:03:54.477Z,87.93
2022-11-05T19:06:21.768Z,87.94
2022-11-05T19:08:48.996Z,87.90
2022-11-05T19:11:19.622Z,87.86
2022-11-05T19:13:47.086Z,87.75
2022-11-05T19:16:17.225Z,87.53
2022-11-05T19:18:44.551Z,87.33
2022-11-05T19:21:22.379Z,87.29
2022-11-05T19:23:49.817Z,87.37
2022-11-05T19:26:28.123Z,87.30
2022-11-05T19:29:01.946Z,87.43
2022-11-05T19:31:29.980Z,87.41
2022-11-05T19:33:56.887Z,89.48
2022-11-05T19:36:25.338Z,89.33
2022-11-05T19:38:57.899Z,88.86
2022-11-05T19:41:25.450Z,88.54
2022-11-05T19:43:58.025Z,88.38
2022-11-05T19:46:25.614Z,88.12
2022-11-05T19:48:53.091Z,87.99
2022-11-05T19:51:22.482Z,87.87
2022-11-05T19:53:51.407Z,87.64
2022-11-05T19:56:21.504Z,87.61
2022-11-05T19:58:49.111Z,87.48
2022-11-05T20:01:18.251Z,87.55
2022-11-05T20:03:45.793Z,87.38
2022-11-05T20:06:21.137Z,87.28
2022-11-05T20:09:15.185Z,87.16
2022-11-05T20:11:37.588Z,87.12
2022-11-05T20:14:05.233Z,87.00
2022-11-05T20:16:38.256Z,87.01
2022-11-05T20:19:07.412Z,86.89
2022-11-05T20:21:35.191Z,86.78
2022-11-05T20:24:02.574Z,86.67
2022-11-05T20:26:29.577Z,86.54
2022-11-05T20:28:56.611Z,86.45
2022-11-05T20:31:23.977Z,86.48
2022-11-05T20:33:51.319Z,86.43
2022-11-05T20:36:21.420Z,86.66
2022-11-05T20:38:50.276Z,87.01
2022-11-05T20:41:17.572Z,87.30
2022-11-05T20:43:44.934Z,87.14
2022-11-05T20:46:14.013Z,86.97
2022-11-05T20:48:41.252Z,86.67
2022-11-05T20:51:10.819Z,86.44
2022-11-05T20:53:38.193Z,86.44
2022-11-05T20:56:09.331Z,86.69
2022-11-05T20:58:37.847Z,86.58
2022-11-05T21:01:05.531Z,86.49
2022-11-05T21:03:32.943Z,86.33
2022-11-05T21:06:04.237Z,86.20
2022-11-05T21:08:31.491Z,86.25
2022-11-05T21:10:58.667Z,86.29
2022-11-05T21:13:26.346Z,86.28
2022-11-05T21:15:57.839Z,85.88
2022-11-05T21:18:28.083Z,85.99
2022-11-05T21:20:55.805Z,85.95
2022-11-05T21:23:22.908Z,86.05
2022-11-05T21:25:49.743Z,86.06
2022-11-05T21:28:16.767Z,85.93
2022-11-05T21:30:45.886Z,85.82
2022-11-05T21:33:14.410Z,85.82
2022-11-05T21:35:46.411Z,85.72
2022-11-05T21:38:15.715Z,85.74
2022-11-05T21:40:43.865Z,85.80
2022-11-05T21:43:11.343Z,85.77
2022-11-05T21:45:42.885Z,85.70
2022-11-05T21:48:11.135Z,85.65
2022-11-05T21:51:00.058Z,85.66
2022-11-05T21:53:45.842Z,85.38
2022-11-05T21:56:40.958Z,85.17
2022-11-05T21:59:30.749Z,85.16
2022-11-05T22:02:01.664Z,85.22
2022-11-05T22:04:30.632Z,85.23
2022-11-05T22:06:57.692Z,85.37
2022-11-05T22:09:25.610Z,85.32
2022-11-05T22:11:53.032Z,85.24
2022-11-05T22:14:20.438Z,85.19
2022-11-05T22:16:47.798Z,84.88
2022-11-05T22:19:14.982Z,85.09
2022-11-05T22:21:42.232Z,85.00
2022-11-05T22:24:09.671Z,84.93
2022-11-05T22:26:37.441Z,84.93
2022-11-05T22:29:05.472Z,84.90
2022-11-05T22:31:36.292Z,84.84
2022-11-05T22:34:04.767Z,84.80
2022-11-05T22:36:33.062Z,84.81
2022-11-05T22:39:00.342Z,84.80
2022-11-05T22:41:27.140Z,84.74
2022-11-05T22:43:54.354Z,84.63
2022-11-05T22:46:23.220Z,84.78
2022-11-05T22:48:50.348Z,84.69
2022-11-05T22:51:19.936Z,84.77
2022-11-05T22:53:47.461Z,84.61
2022-11-05T22:56:17.467Z,84.68
2022-11-05T22:58:44.494Z,84.64
2022-11-05T23:01:12.477Z,84.53
2022-11-05T23:03:41.167Z,84.45
2022-11-05T23:06:32.060Z,84.52
2022-11-05T23:09:18.541Z,84.42
2022-11-05T23:11:48.655Z,84.47
2022-11-05T23:14:15.923Z,84.38
2022-11-05T23:17:02.206Z,84.32
2022-11-05T23:19:48.728Z,84.15
2022-11-05T23:22:43.368Z,84.14
2022-11-05T23:25:17.255Z,84.29
2022-11-05T23:27:46.220Z,84.29
2022-11-05T23:30:16.956Z,84.09
2022-11-05T23:32:44.233Z,84.17
2022-11-05T23:35:11.322Z,84.07
2022-11-05T23:37:56.874Z,84.19
2022-11-05T23:40:29.227Z,84.27
2022-11-05T23:43:15.238Z,84.12
2022-11-05T23:45:59.077Z,84.07
2022-11-05T23:48:32.366Z,83.87
2022-11-05T23:51:05.447Z,83.72
2022-11-05T23:53:34.604Z,83.82
2022-11-05T23:56:13.453Z,83.93
2022-11-05T23:58:41.686Z,83.95
